createdAt,value
2018-05-31T00:00:03.067Z,13.2
2018-05-31T00:00:52.819Z,13.3
2018-05-31T00:01:42.906Z,13.3
2018-05-31T00:02:32.983Z,13.2
2018-05-31T00:03:23.311Z,13.2
2018-05-31T00:04:13.086Z,13.1
2018-05-31T00:05:03.470Z,13.1
2018-05-31T00:05:53.568Z,13.1
2018-05-31T00:06:44.023Z,13
2018-05-31T00:07:33.659Z,12.9
2018-05-31T00:08:23.752Z,12.9
2018-05-31T00:09:13.515Z,12.9
2018-05-31T00:10:04.979Z,12.9
2018-05-31T00:10:53.326Z,12.9
2018-05-31T00:11:43.675Z,12.9
2018-05-31T00:12:34.039Z,12.9
2018-05-31T00:13:26.198Z,12.9
2018-05-31T00:14:13.875Z,12.8
2018-05-31T00:15:04.203Z,12.8
2018-05-31T00:15:53.696Z,12.8
2018-05-31T00:16:45.602Z,12.9
2018-05-31T00:17:33.822Z,12.9
2018-05-31T00:18:24.166Z,12.9
2018-05-31T00:19:14.229Z,12.8
2018-05-31T00:20:04.312Z,12.8
2018-05-31T00:20:54.674Z,12.7
2018-05-31T00:21:44.744Z,12.6
2018-05-31T00:22:34.512Z,12.5
2018-05-31T00:23:24.536Z,12.4
2018-05-31T00:24:14.623Z,12.4
2018-05-31T00:25:05.372Z,12.4
2018-05-31T00:25:55.064Z,12.3
2018-05-31T00:26:45.122Z,12.3
2018-05-31T00:27:35.154Z,12.3
2018-05-31T00:28:25.241Z,12.4
2018-05-31T00:29:14.750Z,12.5
2018-05-31T00:30:05.409Z,12.5
2018-05-31T00:30:55.133Z,12.6
2018-05-31T00:31:45.488Z,12.6
2018-05-31T00:32:35.562Z,12.6
2018-05-31T00:33:25.604Z,12.6
2018-05-31T00:34:15.396Z,12.6
2018-05-31T00:35:05.153Z,12.6
2018-05-31T00:35:55.769Z,12.6
2018-05-31T00:36:45.578Z,12.5
2018-05-31T00:37:35.902Z,12.5
2018-05-31T00:38:26.000Z,12.6
2018-05-31T00:39:16.848Z,12.6
2018-05-31T00:40:05.819Z,12.6
2018-05-31T00:40:56.195Z,12.5
2018-05-31T00:41:45.659Z,12.5
2018-05-31T00:42:37.704Z,12.5
2018-05-31T00:43:25.852Z,12.4
2018-05-31T00:44:16.418Z,12.4
2018-05-31T00:45:06.517Z,12.4
2018-05-31T00:45:58.912Z,12.4
2018-05-31T00:46:46.620Z,12.4
2018-05-31T00:47:35.820Z,12.4
2018-05-31T00:48:26.466Z,12.3
2018-05-31T00:49:20.345Z,12.3
2018-05-31T00:50:06.595Z,12.3
2018-05-31T00:50:56.931Z,12.4
2018-05-31T00:51:46.415Z,12.4
2018-05-31T00:52:37.105Z,12.4
2018-05-31T00:53:26.828Z,12.4
2018-05-31T00:54:17.296Z,12.5
2018-05-31T00:55:07.301Z,12.5
2018-05-31T00:55:56.454Z,12.5
2018-05-31T00:56:47.103Z,12.5
2018-05-31T00:57:37.460Z,12.4
2018-05-31T00:58:27.229Z,12.4
2018-05-31T00:59:16.972Z,12.4
2018-05-31T01:00:07.641Z,12.4
2018-05-31T01:00:57.722Z,12.3
2018-05-31T01:01:47.769Z,12.2
2018-05-31T01:02:37.547Z,12.1
2018-05-31T01:03:27.904Z,12.1
2018-05-31T01:04:17.647Z,12.1
2018-05-31T01:05:08.057Z,12.1
2018-05-31T01:05:57.524Z,12.1
2018-05-31T01:06:48.139Z,12.1
2018-05-31T01:07:38.220Z,12.1
2018-05-31T01:08:28.625Z,12.1
2018-05-31T01:09:18.338Z,12.1
2018-05-31T01:10:08.423Z,12.1
2018-05-31T01:10:58.181Z,12
2018-05-31T01:11:49.721Z,12
2018-05-31T01:12:38.311Z,12.1
2018-05-31T01:13:28.080Z,12.1
2018-05-31T01:14:18.713Z,12.1
2018-05-31T01:15:10.392Z,12.1
2018-05-31T01:15:58.577Z,12.1
2018-05-31T01:16:48.928Z,12.1
2018-05-31T01:17:38.973Z,12.1
2018-05-31T01:18:31.990Z,12.1
2018-05-31T01:19:18.314Z,12.1
2018-05-31T01:20:08.289Z,12
2018-05-31T01:20:58.408Z,12.1
2018-05-31T01:21:50.968Z,12.1
2018-05-31T01:22:38.766Z,12.1
2018-05-31T01:23:29.438Z,12.2
2018-05-31T01:24:19.170Z,12.1
2018-05-31T01:25:09.588Z,12.1
2018-05-31T01:25:59.850Z,12.1
2018-05-31T01:26:49.389Z,12.1
2018-05-31T01:27:39.502Z,12
2018-05-31T01:28:29.214Z,11.9
2018-05-31T01:29:19.892Z,11.9
2018-05-31T01:30:09.957Z,11.9
2018-05-31T01:30:59.682Z,11.9
2018-05-31T01:31:50.041Z,11.9
2018-05-31T01:32:40.112Z,11.9
2018-05-31T01:33:29.601Z,11.9
2018-05-31T01:34:19.710Z,11.9
2018-05-31T01:35:10.351Z,11.9
2018-05-31T01:36:00.368Z,11.9
2018-05-31T01:36:50.126Z,11.9
2018-05-31T01:37:40.940Z,11.9
2018-05-31T01:38:30.275Z,11.9
2018-05-31T01:39:20.663Z,11.9
2018-05-31T01:40:10.761Z,11.9
2018-05-31T01:41:01.295Z,11.8
2018-05-31T01:41:50.843Z,11.8
2018-05-31T01:42:40.869Z,11.8
2018-05-31T01:43:30.656Z,11.9
2018-05-31T01:44:22.019Z,11.9
2018-05-31T01:45:11.054Z,11.9
2018-05-31T01:46:01.119Z,12
2018-05-31T01:46:50.618Z,12
2018-05-31T01:47:43.916Z,11.9
2018-05-31T01:48:31.327Z,11.9
2018-05-31T01:49:21.405Z,11.9
2018-05-31T01:50:11.178Z,11.9
2018-05-31T01:51:02.279Z,11.9
2018-05-31T01:51:51.339Z,11.8
2018-05-31T01:52:41.339Z,11.8
2018-05-31T01:53:31.132Z,11.8
2018-05-31T01:54:21.201Z,11.9
2018-05-31T01:55:11.844Z,11.9
2018-05-31T01:56:01.620Z,12
2018-05-31T01:56:51.992Z,12
2018-05-31T01:57:42.033Z,12
2018-05-31T01:58:32.103Z,11.9
2018-05-31T01:59:22.139Z,11.9
2018-05-31T02:00:12.211Z,11.8
2018-05-31T02:01:02.311Z,11.8
2018-05-31T02:01:52.356Z,11.6
2018-05-31T02:02:42.432Z,11.6
2018-05-31T02:03:32.187Z,11.6
2018-05-31T02:04:22.540Z,11.4
2018-05-31T02:05:12.607Z,11.4
2018-05-31T02:06:02.361Z,11.4
2018-05-31T02:06:52.715Z,11.4
2018-05-31T02:07:42.501Z,11.3
2018-05-31T02:08:32.837Z,11.3
2018-05-31T02:09:22.602Z,11.3
2018-05-31T02:10:13.617Z,11.3
2018-05-31T02:11:03.045Z,11.2
2018-05-31T02:11:53.100Z,11.1
2018-05-31T02:12:42.887Z,11
2018-05-31T02:13:34.024Z,10.9
2018-05-31T02:14:23.270Z,10.8
2018-05-31T02:15:13.420Z,10.7
2018-05-31T02:16:02.824Z,10.6
2018-05-31T02:16:55.686Z,10.6
2018-05-31T02:17:43.545Z,10.6
2018-05-31T02:18:33.322Z,10.6
2018-05-31T02:19:23.106Z,10.6
2018-05-31T02:20:16.330Z,10.6
2018-05-31T02:21:03.813Z,10.5
2018-05-31T02:21:53.870Z,10.4
2018-05-31T02:22:43.931Z,10.4
2018-05-31T02:23:33.691Z,10.4
2018-05-31T02:24:23.561Z,10.4
2018-05-31T02:25:14.090Z,10.4
2018-05-31T02:26:04.195Z,10.4
2018-05-31T02:26:53.965Z,10.4
2018-05-31T02:27:44.034Z,10.4
2018-05-31T02:28:34.074Z,10.4
2018-05-31T02:29:24.459Z,10.4
2018-05-31T02:30:14.226Z,10.4
2018-05-31T02:31:04.656Z,10.4
2018-05-31T02:31:54.648Z,10.4
2018-05-31T02:32:44.673Z,10.4
2018-05-31T02:33:34.739Z,10.4
2018-05-31T02:34:24.518Z,10.4
2018-05-31T02:35:14.899Z,10.4
2018-05-31T02:36:05.006Z,10.4
2018-05-31T02:36:55.023Z,10.4
2018-05-31T02:37:45.088Z,10.4
2018-05-31T02:38:34.847Z,10.3
2018-05-31T02:39:26.013Z,10.3
2018-05-31T02:40:14.680Z,10.3
2018-05-31T02:41:05.340Z,10.3
2018-05-31T02:41:55.372Z,10.1
2018-05-31T02:42:47.337Z,10.1
2018-05-31T02:43:34.935Z,10.1
2018-05-31T02:44:25.280Z,10.1
2018-05-31T02:45:15.629Z,10.1
2018-05-31T02:46:07.943Z,10
2018-05-31T02:46:55.459Z,10
2018-05-31T02:47:45.888Z,9.9
2018-05-31T02:48:35.597Z,10
2018-05-31T02:49:25.704Z,9.9
2018-05-31T02:50:16.028Z,9.9
2018-05-31T02:51:06.090Z,9.9
2018-05-31T02:51:56.151Z,9.9
2018-05-31T02:52:46.249Z,9.9
2018-05-31T02:53:36.286Z,9.9
2018-05-31T02:54:26.089Z,9.9
2018-05-31T02:55:16.408Z,9.9
2018-05-31T02:56:06.179Z,9.9
2018-05-31T02:56:56.566Z,9.9
2018-05-31T02:57:46.578Z,9.9
2018-05-31T02:58:36.672Z,10
2018-05-31T02:59:26.730Z,10
2018-05-31T03:00:16.825Z,9.9
2018-05-31T03:01:06.550Z,9.9
2018-05-31T03:01:56.608Z,9.9
2018-05-31T03:02:46.671Z,9.9
2018-05-31T03:03:37.014Z,9.9
2018-05-31T03:04:26.898Z,9.9
2018-05-31T03:05:17.533Z,9.9
2018-05-31T03:06:07.224Z,9.9
2018-05-31T03:06:57.004Z,9.8
2018-05-31T03:07:47.244Z,9.8
2018-05-31T03:08:38.431Z,9.8
2018-05-31T03:09:27.224Z,9.8
2018-05-31T03:10:17.267Z,9.8
2018-05-31T03:11:07.610Z,9.8
2018-05-31T03:11:59.707Z,9.7
2018-05-31T03:12:47.724Z,9.6
2018-05-31T03:13:37.507Z,9.6
2018-05-31T03:14:27.301Z,9.6
2018-05-31T03:15:18.484Z,9.6
2018-05-31T03:16:08.017Z,9.6
2018-05-31T03:16:57.783Z,9.6
2018-05-31T03:17:48.144Z,9.6
2018-05-31T03:18:38.189Z,9.6
2018-05-31T03:19:28.286Z,9.6
2018-05-31T03:20:18.310Z,9.6
2018-05-31T03:21:08.102Z,9.8
2018-05-31T03:21:57.919Z,9.8
2018-05-31T03:22:48.500Z,9.8
2018-05-31T03:23:38.247Z,9.8
2018-05-31T03:24:28.651Z,9.9
2018-05-31T03:25:18.732Z,9.9
2018-05-31T03:26:08.747Z,9.9
2018-05-31T03:26:58.513Z,9.9
2018-05-31T03:27:48.580Z,9.9
2018-05-31T03:28:38.943Z,9.9
2018-05-31T03:29:28.995Z,10.1
2018-05-31T03:30:19.080Z,10
2018-05-31T03:31:10.088Z,10
2018-05-31T03:31:59.193Z,10
2018-05-31T03:32:48.974Z,10
2018-05-31T03:33:39.019Z,9.9
2018-05-31T03:34:31.299Z,9.9
2018-05-31T03:35:19.201Z,10
2018-05-31T03:36:09.214Z,10
2018-05-31T03:36:59.577Z,10
2018-05-31T03:37:51.355Z,10.1
2018-05-31T03:38:39.694Z,10.2
2018-05-31T03:39:29.174Z,10.3
2018-05-31T03:40:19.796Z,10.4
2018-05-31T03:41:10.344Z,10.4
2018-05-31T03:41:59.964Z,10.6
2018-05-31T03:42:50.033Z,10.6
2018-05-31T03:43:38.909Z,10.8
2018-05-31T03:44:30.159Z,10.8
2018-05-31T03:45:19.728Z,10.8
2018-05-31T03:46:10.284Z,10.9
2018-05-31T03:47:00.324Z,10.9
2018-05-31T03:47:50.406Z,10.9
2018-05-31T03:48:40.470Z,10.9
2018-05-31T03:49:29.949Z,10.9
2018-05-31T03:50:20.300Z,11
2018-05-31T03:51:10.656Z,11
2018-05-31T03:52:00.168Z,11.1
2018-05-31T03:52:50.768Z,11.1
2018-05-31T03:53:40.540Z,11.3
2018-05-31T03:54:30.622Z,11.3
2018-05-31T03:55:20.694Z,11.4
2018-05-31T03:56:10.762Z,11.5
2018-05-31T03:57:02.041Z,11.6
2018-05-31T03:57:50.868Z,11.6
2018-05-31T03:58:41.210Z,11.6
2018-05-31T03:59:31.006Z,11.8
2018-05-31T04:00:23.879Z,11.8
2018-05-31T04:01:11.432Z,11.8
2018-05-31T04:02:01.494Z,11.9
2018-05-31T04:02:51.531Z,11.9
2018-05-31T04:03:42.438Z,11.9
2018-05-31T04:04:31.740Z,12
2018-05-31T04:05:21.428Z,12.1
2018-05-31T04:06:11.800Z,12.1
2018-05-31T04:07:01.858Z,12.2
2018-05-31T04:07:51.661Z,12.3
2018-05-31T04:08:41.985Z,12.3
2018-05-31T04:09:32.054Z,12.3
2018-05-31T04:10:21.825Z,12.3
2018-05-31T04:11:12.181Z,12.4
2018-05-31T04:12:01.938Z,12.4
2018-05-31T04:12:52.296Z,12.4
2018-05-31T04:13:42.092Z,12.5
2018-05-31T04:14:31.835Z,12.6
2018-05-31T04:15:22.513Z,12.6
2018-05-31T04:16:12.269Z,12.7
2018-05-31T04:17:02.030Z,12.8
2018-05-31T04:17:52.123Z,12.8
2018-05-31T04:18:42.731Z,12.9
2018-05-31T04:19:33.397Z,13
2018-05-31T04:20:22.854Z,13.1
2018-05-31T04:21:12.645Z,13.1
2018-05-31T04:22:02.720Z,13.1
2018-05-31T04:22:54.094Z,13.2
2018-05-31T04:23:43.139Z,13.2
2018-05-31T04:24:33.181Z,13.4
2018-05-31T04:25:22.957Z,13.3
2018-05-31T04:26:15.121Z,13.3
2018-05-31T04:27:03.094Z,13.5
2018-05-31T04:27:53.171Z,13.5
2018-05-31T04:28:43.508Z,13.6
2018-05-31T04:29:34.393Z,13.6
2018-05-31T04:30:23.335Z,13.6
2018-05-31T04:31:13.423Z,13.7
2018-05-31T04:32:03.488Z,13.7
2018-05-31T04:32:53.567Z,13.8
2018-05-31T04:33:44.385Z,13.8
2018-05-31T04:34:33.969Z,13.8
2018-05-31T04:35:24.019Z,13.8
2018-05-31T04:36:14.049Z,13.8
2018-05-31T04:37:03.860Z,14
2018-05-31T04:37:54.195Z,14.1
2018-05-31T04:38:44.287Z,14.1
2018-05-31T04:39:34.033Z,14.1
2018-05-31T04:40:23.809Z,14.2
2018-05-31T04:41:14.473Z,14.3
2018-05-31T04:42:04.554Z,14.3
2018-05-31T04:42:54.576Z,14.3
2018-05-31T04:43:44.636Z,14.3
2018-05-31T04:44:34.421Z,14.3
2018-05-31T04:45:25.831Z,14.4
2018-05-31T04:46:14.842Z,14.5
2018-05-31T04:47:04.614Z,14.5
2018-05-31T04:47:54.987Z,14.6
2018-05-31T04:48:46.845Z,14.6
2018-05-31T04:49:35.106Z,14.9
2018-05-31T04:50:25.169Z,14.9
2018-05-31T04:51:14.630Z,15
2018-05-31T04:52:06.815Z,15.1
2018-05-31T04:52:55.384Z,14.9
2018-05-31T04:53:44.828Z,14.9
2018-05-31T04:54:35.185Z,14.9
2018-05-31T04:55:25.269Z,14.9
2018-05-31T04:56:15.623Z,15
2018-05-31T04:57:05.379Z,15.1
2018-05-31T04:57:55.487Z,15.2
2018-05-31T04:58:45.811Z,15.3
2018-05-31T04:59:35.610Z,15.4
2018-05-31T05:00:25.946Z,15.4
2018-05-31T05:01:15.684Z,15.6
2018-05-31T05:02:06.054Z,15.8
2018-05-31T05:02:56.313Z,15.8
2018-05-31T05:03:45.665Z,15.6
2018-05-31T05:04:35.463Z,15.7
2018-05-31T05:05:26.304Z,15.7
2018-05-31T05:06:16.061Z,15.8
2018-05-31T05:07:06.146Z,15.8
2018-05-31T05:07:56.803Z,15.9
2018-05-31T05:08:45.983Z,15.9
2018-05-31T05:09:36.331Z,15.9
2018-05-31T05:10:26.678Z,16.1
2018-05-31T05:11:17.945Z,16.1
2018-05-31T05:12:06.793Z,16.3
2018-05-31T05:12:56.583Z,16.2
2018-05-31T05:13:46.069Z,16.3
2018-05-31T05:14:38.346Z,16.3
2018-05-31T05:15:27.072Z,16.4
2018-05-31T05:16:17.140Z,16.4
2018-05-31T05:17:07.205Z,16.4
2018-05-31T05:17:58.475Z,16.6
2018-05-31T05:18:47.338Z,16.6
2018-05-31T05:19:36.808Z,16.6
2018-05-31T05:20:27.448Z,16.6
2018-05-31T05:21:17.515Z,16.5
2018-05-31T05:22:07.280Z,16.6
2018-05-31T05:22:57.333Z,16.8
2018-05-31T05:23:47.413Z,16.9
2018-05-31T05:27:07.963Z,17.2
2018-05-31T05:27:58.028Z,17.3
2018-05-31T05:28:48.097Z,17.3
2018-05-31T05:29:38.185Z,17.4
2018-05-31T05:30:27.922Z,17.5
2018-05-31T05:31:17.987Z,17.6
2018-05-31T05:32:07.760Z,17.6
2018-05-31T05:32:58.412Z,17.6
2018-05-31T05:33:48.733Z,17.6
2018-05-31T05:34:38.252Z,17.6
2018-05-31T05:35:27.998Z,17.5
2018-05-31T05:36:18.656Z,17.3
2018-05-31T05:37:10.073Z,17.3
2018-05-31T05:37:58.778Z,17.2
2018-05-31T05:38:48.833Z,17.4
2018-05-31T05:39:38.889Z,17.3
2018-05-31T05:40:31.531Z,17.1
2018-05-31T05:41:18.741Z,17.2
2018-05-31T05:42:08.839Z,17.4
2018-05-31T05:42:59.181Z,17.3
2018-05-31T05:43:48.951Z,17.2
2018-05-31T05:44:39.308Z,17.1
2018-05-31T05:45:29.136Z,17.1
2018-05-31T05:46:18.834Z,17.2
2018-05-31T05:47:09.182Z,17.3
2018-05-31T05:47:58.948Z,17.5
2018-05-31T05:48:49.585Z,17.5
2018-05-31T05:49:39.663Z,17.6
2018-05-31T05:50:29.164Z,18
2018-05-31T05:51:19.522Z,18.1
2018-05-31T05:52:09.842Z,18.4
2018-05-31T05:53:00.275Z,18.4
2018-05-31T05:53:49.781Z,18.5
2018-05-31T05:54:40.028Z,18.6
2018-05-31T05:56:21.364Z,18.8
2018-05-31T05:57:09.955Z,18.8
2018-05-31T05:58:00.312Z,18.9
2018-05-31T05:58:50.350Z,18.8
2018-05-31T05:59:42.845Z,18.6
2018-05-31T06:01:20.534Z,18.8
2018-05-31T06:02:10.326Z,18.8
2018-05-31T06:03:02.297Z,19
2018-05-31T06:03:50.730Z,18.9
2018-05-31T06:04:40.813Z,19
2018-05-31T06:05:30.868Z,19.3
2018-05-31T06:06:20.959Z,19.3
2018-05-31T06:07:10.419Z,19.3
2018-05-31T06:08:01.040Z,19.4
2018-05-31T06:08:50.656Z,19.4
2018-05-31T06:09:41.187Z,19.7
2018-05-31T06:10:31.289Z,19.5
2018-05-31T06:11:21.334Z,19.6
2018-05-31T06:12:11.090Z,19.8
2018-05-31T06:13:01.459Z,19.7
2018-05-31T06:13:51.217Z,19.3
2018-05-31T06:14:41.579Z,19.4
2018-05-31T06:15:33.141Z,19.7
2018-05-31T06:16:21.392Z,20
2018-05-31T06:17:11.480Z,20.1
2018-05-31T06:18:01.826Z,20.3
2018-05-31T06:18:54.171Z,20.4
2018-05-31T06:19:42.124Z,20.4
2018-05-31T06:20:32.032Z,20.4
2018-05-31T06:21:21.504Z,20.4
2018-05-31T06:22:13.969Z,20.3
2018-05-31T06:23:02.297Z,20.4
2018-05-31T06:23:52.288Z,20.3
2018-05-31T06:24:42.634Z,20.1
2018-05-31T06:25:32.754Z,19.9
2018-05-31T06:26:22.718Z,19.9
2018-05-31T06:27:12.247Z,19.6
2018-05-31T06:28:02.592Z,19.8
2018-05-31T06:28:52.624Z,20.2
2018-05-31T06:29:41.872Z,20.5
2018-05-31T06:30:32.788Z,20.6
2018-05-31T06:31:22.909Z,20.8
2018-05-31T06:32:12.935Z,20.9
2018-05-31T06:33:03.008Z,20.6
2018-05-31T06:33:53.046Z,20.6
2018-05-31T06:34:43.052Z,20.9
2018-05-31T06:35:33.137Z,20.9
2018-05-31T06:36:23.166Z,20.9
2018-05-31T06:37:13.599Z,20.6
2018-05-31T06:38:03.324Z,20.4
2018-05-31T06:38:53.365Z,20.8
2018-05-31T06:39:43.455Z,20.5
2018-05-31T06:40:33.500Z,20.4
2018-05-31T06:41:23.296Z,20.9
2018-05-31T06:42:13.357Z,20.9
2018-05-31T06:43:03.536Z,21
2018-05-31T06:43:53.272Z,21.1
2018-05-31T06:44:43.543Z,21.1
2018-05-31T06:45:33.862Z,21.5
2018-05-31T06:46:23.678Z,21.6
2018-05-31T06:47:13.472Z,21.8
2018-05-31T06:48:04.069Z,21.9
2018-05-31T06:48:53.865Z,21.7
2018-05-31T06:49:43.678Z,21.9
2018-05-31T06:50:33.525Z,21.8
2018-05-31T06:51:24.040Z,21.2
2018-05-31T06:52:14.097Z,21.3
2018-05-31T06:53:04.470Z,21.6
2018-05-31T06:53:54.254Z,21.8
2018-05-31T06:54:44.320Z,21.6
2018-05-31T06:55:34.377Z,21.7
2018-05-31T06:56:24.459Z,21.7
2018-05-31T06:57:14.489Z,21.6
2018-05-31T06:58:04.363Z,21.8
2018-05-31T06:58:54.624Z,22.1
2018-05-31T06:59:44.961Z,22.4
2018-05-31T07:00:34.773Z,22.3
2018-05-31T07:01:24.542Z,22.1
2018-05-31T07:02:14.895Z,22.5
2018-05-31T07:03:05.219Z,22.6
2018-05-31T07:03:55.301Z,22.8
2018-05-31T07:04:45.071Z,22.8
2018-05-31T07:05:35.412Z,22.8
2018-05-31T07:06:24.922Z,22.8
2018-05-31T07:07:15.271Z,22.7
2018-05-31T07:08:05.591Z,22.9
2018-05-31T07:08:55.391Z,22.8
2018-05-31T07:09:45.453Z,22.6
2018-05-31T07:10:35.526Z,23.1
2018-05-31T07:11:25.395Z,23.1
2018-05-31T07:12:15.924Z,23.1
2018-05-31T07:13:05.994Z,23.1
2018-05-31T07:13:56.050Z,23.1
2018-05-31T07:14:46.108Z,22.5
2018-05-31T07:15:36.197Z,21.8
2018-05-31T07:16:25.984Z,21.5
2018-05-31T07:17:16.054Z,21.6
2018-05-31T07:18:06.368Z,22
2018-05-31T07:18:56.421Z,22.7
2018-05-31T07:19:46.493Z,22.9
2018-05-31T07:20:36.349Z,23.3
2018-05-31T07:21:25.860Z,23.5
2018-05-31T07:22:16.701Z,23.6
2018-05-31T07:23:06.742Z,23.7
2018-05-31T07:23:56.378Z,23.8
2018-05-31T07:24:46.897Z,23.6
2018-05-31T07:25:36.671Z,23.6
2018-05-31T07:26:27.015Z,23.7
2018-05-31T07:27:17.109Z,23.8
2018-05-31T07:28:07.150Z,23.5
2018-05-31T07:28:57.217Z,23.6
2018-05-31T07:29:46.717Z,23.9
2018-05-31T07:30:37.121Z,24.1
2018-05-31T07:31:27.163Z,24.3
2018-05-31T07:32:17.179Z,24.4
2018-05-31T07:33:06.678Z,24.4
2018-05-31T07:33:57.579Z,24.3
2018-05-31T07:34:47.384Z,24.1
2018-05-31T07:35:37.751Z,24.1
2018-05-31T07:36:27.829Z,23.8
2018-05-31T07:37:17.579Z,24.6
2018-05-31T07:38:07.376Z,24.8
2018-05-31T07:38:57.995Z,24.8
2018-05-31T07:39:47.499Z,24.2
2018-05-31T07:40:38.136Z,24.3
2018-05-31T07:41:27.886Z,24.6
2018-05-31T07:42:18.249Z,24.2
2018-05-31T07:43:07.718Z,24.1
2018-05-31T07:43:58.073Z,24.3
2018-05-31T07:44:48.426Z,24.1
2018-05-31T07:45:38.507Z,24.7
2018-05-31T07:46:27.999Z,24.4
2018-05-31T07:47:18.333Z,24.4
2018-05-31T07:48:08.678Z,23.8
2018-05-31T07:48:58.770Z,23.6
2018-05-31T07:49:48.258Z,23.9
2018-05-31T07:50:38.619Z,24.6
2018-05-31T07:51:28.945Z,24.4
2018-05-31T07:52:19.028Z,24.3
2018-05-31T07:53:09.100Z,24.2
2018-05-31T07:53:59.177Z,23.8
2018-05-31T07:54:48.901Z,24.1
2018-05-31T07:55:38.981Z,24.3
2018-05-31T07:56:29.041Z,24.6
2018-05-31T07:57:19.397Z,24.8
2018-05-31T07:58:09.986Z,25.1
2018-05-31T07:58:58.948Z,24.6
2018-05-31T07:59:49.288Z,24.9
2018-05-31T08:00:39.163Z,24.8
2018-05-31T08:01:29.433Z,24.8
2018-05-31T08:02:19.770Z,24.9
2018-05-31T08:03:09.877Z,24.3
2018-05-31T08:03:59.915Z,24.4
2018-05-31T08:04:49.992Z,24.8
2018-05-31T08:05:39.709Z,25.2
2018-05-31T08:06:29.609Z,25
2018-05-31T08:07:20.174Z,24.2
2018-05-31T08:08:10.265Z,24.1
2018-05-31T08:08:59.770Z,24.1
2018-05-31T08:09:50.392Z,24.4
2018-05-31T08:10:40.213Z,24.8
2018-05-31T08:11:30.548Z,24.6
2018-05-31T08:12:20.042Z,24.7
2018-05-31T08:13:10.627Z,24.9
2018-05-31T08:14:00.690Z,24.9
2018-05-31T08:14:50.743Z,25.1
2018-05-31T08:15:40.747Z,25.3
2018-05-31T08:16:30.348Z,25.4
2018-05-31T08:17:20.677Z,25.8
2018-05-31T08:18:10.707Z,25.5
2018-05-31T08:19:00.800Z,25.4
2018-05-31T08:19:50.909Z,25.8
2018-05-31T08:20:41.069Z,26.3
2018-05-31T08:21:31.280Z,25.6
2018-05-31T08:22:21.053Z,24.8
2018-05-31T08:23:11.093Z,24.8
2018-05-31T08:24:01.165Z,24.4
2018-05-31T08:24:51.239Z,24.8
2018-05-31T08:25:41.023Z,24.8
2018-05-31T08:26:31.095Z,25.2
2018-05-31T08:27:21.415Z,25.5
2018-05-31T08:28:11.221Z,24.9
2018-05-31T08:29:01.853Z,25.5
2018-05-31T08:29:51.904Z,25.6
2018-05-31T08:30:41.972Z,25.7
2018-05-31T08:31:32.537Z,26.1
2018-05-31T08:32:22.098Z,26.8
2018-05-31T08:33:11.887Z,26.4
2018-05-31T08:34:02.242Z,26.4
2018-05-31T08:34:52.321Z,26.8
2018-05-31T08:35:42.379Z,26.4
2018-05-31T08:36:32.409Z,26.6
2018-05-31T08:37:22.457Z,26.7
2018-05-31T08:38:11.689Z,27.3
2018-05-31T08:39:02.615Z,26.9
2018-05-31T08:39:52.684Z,27
2018-05-31T08:40:42.733Z,26.9
2018-05-31T08:41:32.512Z,27.4
2018-05-31T08:42:22.866Z,27.3
2018-05-31T08:43:12.957Z,26.6
2018-05-31T08:44:03.310Z,25.7
2018-05-31T08:44:52.782Z,25.4
2018-05-31T08:45:43.161Z,25.5
2018-05-31T08:46:32.903Z,25.8
2018-05-31T08:47:22.668Z,25.6
2018-05-31T08:48:13.357Z,25.2
2018-05-31T08:49:02.339Z,25.4
2018-05-31T08:49:53.422Z,26.1
2018-05-31T08:50:43.500Z,26.6
2018-05-31T08:51:33.003Z,26.6
2018-05-31T08:52:23.335Z,26.5
2018-05-31T08:53:13.704Z,26.6
2018-05-31T08:54:03.820Z,26.3
2018-05-31T08:54:53.549Z,25.6
2018-05-31T08:55:43.126Z,25.8
2018-05-31T08:56:33.954Z,25.7
2018-05-31T08:57:24.036Z,26
2018-05-31T08:58:14.080Z,26.3
2018-05-31T08:59:04.170Z,26.9
2018-05-31T08:59:54.246Z,27.3
2018-05-31T09:00:44.285Z,27.6
2018-05-31T09:01:34.323Z,28.1
2018-05-31T09:02:24.405Z,28.5
2018-05-31T09:03:14.172Z,28.8
2018-05-31T09:04:04.259Z,28.9
2018-05-31T09:04:54.600Z,28.6
2018-05-31T09:05:44.687Z,28.4
2018-05-31T09:06:33.864Z,28.3
2018-05-31T09:07:24.792Z,28.4
2018-05-31T09:08:14.864Z,28
2018-05-31T09:09:04.942Z,27.9
2018-05-31T09:09:54.968Z,27.6
2018-05-31T09:10:45.027Z,28.2
2018-05-31T09:11:35.121Z,28.2
2018-05-31T09:12:25.151Z,28
2018-05-31T09:13:14.683Z,27.5
2018-05-31T09:14:05.312Z,27.8
2018-05-31T09:14:55.423Z,28.3
2018-05-31T09:15:45.146Z,28.4
2018-05-31T09:16:35.504Z,28.7
2018-05-31T09:17:25.590Z,29
2018-05-31T09:18:15.359Z,28.7
2018-05-31T09:19:05.412Z,28.8
2018-05-31T09:19:55.481Z,28.3
2018-05-31T09:20:45.815Z,27.3
2018-05-31T09:21:35.880Z,27.3
2018-05-31T09:22:25.924Z,27.2
2018-05-31T09:23:16.017Z,27.4
2018-05-31T09:24:05.784Z,27.8
2018-05-31T09:24:56.147Z,28.3
2018-05-31T09:25:46.180Z,28.9
2018-05-31T09:26:36.272Z,29.2
2018-05-31T09:27:25.787Z,29.3
2018-05-31T09:28:16.423Z,28.9
2018-05-31T09:29:06.471Z,28.6
2018-05-31T09:29:56.245Z,28.8
2018-05-31T09:30:46.587Z,28.4
2018-05-31T09:31:36.649Z,28.3
2018-05-31T09:32:26.144Z,28.6
2018-05-31T09:33:16.772Z,28.4
2018-05-31T09:34:06.854Z,28.6
2018-05-31T09:34:56.412Z,28.7
2018-05-31T09:35:47.012Z,28.5
2018-05-31T09:36:37.074Z,28.6
2018-05-31T09:37:26.821Z,28.8
2018-05-31T09:38:16.859Z,28.8
2018-05-31T09:39:07.226Z,28.9
2018-05-31T09:39:57.280Z,28.8
2018-05-31T09:40:47.379Z,28.2
2018-05-31T09:41:37.118Z,28.4
2018-05-31T09:42:27.184Z,28.3
2018-05-31T09:43:17.550Z,27.6
2018-05-31T09:44:07.620Z,27.2
2018-05-31T09:44:57.686Z,27.3
2018-05-31T09:45:47.756Z,26.5
2018-05-31T09:46:37.708Z,26.4
2018-05-31T09:47:27.895Z,26.8
2018-05-31T09:48:17.954Z,27.4
2018-05-31T09:49:07.174Z,27.9
2018-05-31T09:49:58.067Z,28.4
2018-05-31T09:50:48.144Z,28.3
2018-05-31T09:51:38.224Z,27.4
2018-05-31T09:52:27.709Z,27.4
2018-05-31T09:53:18.336Z,28
2018-05-31T09:54:08.112Z,28.5
2018-05-31T09:54:58.461Z,28.8
2018-05-31T09:55:48.497Z,28.5
2018-05-31T09:56:38.301Z,29
2018-05-31T09:57:28.661Z,29.5
2018-05-31T09:58:18.830Z,29.4
2018-05-31T09:59:08.223Z,28.8
2018-05-31T09:59:58.262Z,28.3
2018-05-31T10:00:48.037Z,27.3
2018-05-31T10:01:39.025Z,27.4
2018-05-31T10:02:29.025Z,27.3
2018-05-31T10:03:19.106Z,27.2
2018-05-31T10:04:08.595Z,27.5
2018-05-31T10:04:58.680Z,27.4
2018-05-31T10:05:49.011Z,27.1
2018-05-31T10:06:39.348Z,26.8
2018-05-31T10:07:29.144Z,26.6
2018-05-31T10:08:19.468Z,26.8
2018-05-31T10:09:09.587Z,26.9
2018-05-31T10:09:59.323Z,27.1
2018-05-31T10:10:49.677Z,26.6
2018-05-31T10:11:39.753Z,26.8
2018-05-31T10:12:29.811Z,27
2018-05-31T10:13:19.868Z,26.6
2018-05-31T10:14:09.650Z,26.7
2018-05-31T10:14:59.503Z,26.5
2018-05-31T10:15:49.807Z,26.8
2018-05-31T10:16:40.099Z,27.6
2018-05-31T10:17:30.212Z,27.6
2018-05-31T10:18:19.949Z,27.9
2018-05-31T10:19:09.748Z,28.2
2018-05-31T10:20:00.089Z,28.2
2018-05-31T10:20:50.461Z,27.8
2018-05-31T10:21:40.499Z,28
2018-05-31T10:23:20.639Z,28
2018-05-31T10:24:10.423Z,27.9
2018-05-31T10:25:00.476Z,27.4
2018-05-31T10:25:50.871Z,27.6
2018-05-31T10:26:40.892Z,28.4
2018-05-31T10:27:30.682Z,28.3
2018-05-31T10:28:21.011Z,28.5
2018-05-31T10:29:10.225Z,29.2
2018-05-31T10:30:01.158Z,28.9
2018-05-31T10:30:51.221Z,28.8
2018-05-31T10:31:41.001Z,29.2
2018-05-31T10:32:31.094Z,29.9
2018-05-31T10:33:21.126Z,30.3
2018-05-31T10:34:11.191Z,29.8
2018-05-31T10:35:01.239Z,29.6
2018-05-31T10:35:51.342Z,29.9
2018-05-31T10:36:41.645Z,30.1
2018-05-31T10:37:31.171Z,29.3
2018-05-31T10:38:21.567Z,28.4
2018-05-31T10:39:11.855Z,27.9
2018-05-31T10:40:01.674Z,28.2
2018-05-31T10:40:51.972Z,28.5
2018-05-31T10:41:41.795Z,28.1
2018-05-31T10:42:31.856Z,28.4
2018-05-31T10:43:21.904Z,27.8
2018-05-31T10:44:12.278Z,27.3
2018-05-31T10:45:02.349Z,27.8
2018-05-31T10:45:52.094Z,27.7
2018-05-31T10:46:42.478Z,28.4
2018-05-31T10:47:32.534Z,27.7
2018-05-31T10:48:22.279Z,27.3
2018-05-31T10:49:11.763Z,27.6
2018-05-31T10:50:02.705Z,28.3
2018-05-31T10:50:52.487Z,28.8
2018-05-31T10:51:42.834Z,29.4
2018-05-31T10:52:32.341Z,29.2
2018-05-31T10:53:22.662Z,28.3
2018-05-31T10:54:12.765Z,28.1
2018-05-31T10:55:03.099Z,27.5
2018-05-31T10:55:53.157Z,28
2018-05-31T10:56:43.208Z,28.1
2018-05-31T10:57:33.291Z,28.8
2018-05-31T10:58:22.795Z,28.5
2018-05-31T10:59:13.583Z,28.6
2018-05-31T11:00:03.221Z,29.1
2018-05-31T11:00:52.970Z,29.2
2018-05-31T11:01:43.299Z,29.2
2018-05-31T11:02:33.641Z,28.7
2018-05-31T11:03:23.450Z,28.6
2018-05-31T11:04:13.790Z,28.9
2018-05-31T11:05:03.865Z,29.4
2018-05-31T11:05:53.924Z,28.9
2018-05-31T11:06:43.401Z,28.9
2018-05-31T11:07:33.752Z,28.9
2018-05-31T11:08:24.123Z,28.9
2018-05-31T11:09:13.885Z,29.4
2018-05-31T11:10:04.290Z,28.8
2018-05-31T11:10:54.280Z,28.4
2018-05-31T11:11:44.143Z,28.4
2018-05-31T11:12:34.416Z,28.9
2018-05-31T11:13:24.257Z,29.5
2018-05-31T11:14:14.546Z,30.6
2018-05-31T11:15:04.755Z,30.7